Auriesville, New York
Current Conditions -  °F | °C
As of 4:35 PM on Saturday 25 Oct 2014 (Local Time) from KNY0 Reporting Station
Overcast Overcast  
Wind Chill: 58°   Ceiling: 10000
Heat Index: 58°   Visibility: 10mi
Dew Point: 44°   Wind: 8mph
Humidity: 58%   Direction: 240°WSW
Pressure: 29.6"   Gusts: NA
Location:  42.93°N, 74.32°W
Report Text: KNY0 252035Z AUTO 24007KT 10SM SCT041 SCT047 OVC100 15/06 A2960 RMK AO2 T01450064
Loading
Personal Weather Stations






























Interactive Weather Map New forecast layout! Learn more

10-Day Weather Forecast

Advertisements
Track Severe Weather on mobile